Terminal Aerodrome Forecast
Issued by NWS Cleveland, OH

Home | Current Version | Previous Version | Graphics & Text | Print | Product List | Glossary On
Versions: 1 2 3 4 5 6 7 8 9 10 11 12 13 14 15 16 17 18 19 20 21 22 23 24 25 26 27 28 29 30 31 32 33
000
FTUS41 KCLE 181900 AAA
TAFCLE
TAF AMD
KCLE 181914Z 1819/1924 24022G32KT P6SM OVC035
     FM190600 23012KT P6SM SCT035
     FM191400 20015G25KT P6SM BKN035 OVC100
     FM191800 18018G30KT 3SM -SN SCT008 OVC012=

USA.gov is the U.S. government's official web portal to all federal, state and local government web resources and services.